sensor_id;sensor_type;location;lat;lon;timestamp;pressure;altitude;pressure_sealevel;temperature;humidity
5296;BME280;2670;42.720;23.336;2023-04-06T00:01:20;-22435.50;;;-0.18;100.00
5296;BME280;2670;42.720;23.336;2023-04-06T00:03:47;-22438.06;;;-0.10;100.00
5296;BME280;2670;42.720;23.336;2023-04-06T00:06:13;-22438.94;;;-0.07;100.00
5296;BME280;2670;42.720;23.336;2023-04-06T00:08:40;-22437.75;;;-0.11;100.00
5296;BME280;2670;42.720;23.336;2023-04-06T00:11:07;-22440.75;;;-0.01;100.00
5296;BME280;2670;42.720;23.336;2023-04-06T00:13:34;-22439.41;;;-0.05;100.00
5296;BME280;2670;42.720;23.336;2023-04-06T00:16:02;-22440.00;;;-0.03;100.00
5296;BME280;2670;42.720;23.336;2023-04-06T00:18:30;-22441.94;;;0.04;100.00
5296;BME280;2670;42.720;23.336;2023-04-06T00:20:57;-22438.66;;;-0.08;100.00
5296;BME280;2670;42.720;23.336;2023-04-06T00:23:24;-22440.75;;;-0.01;100.00
5296;BME280;2670;42.720;23.336;2023-04-06T00:25:51;-22442.53;;;0.06;100.00
5296;BME280;2670;42.720;23.336;2023-04-06T00:28:17;-22440.16;;;-0.03;100.00
5296;BME280;2670;42.720;23.336;2023-04-06T00:30:50;-22440.59;;;-0.01;100.00
5296;BME280;2670;42.720;23.336;2023-04-06T00:33:19;-22443.00;;;0.07;100.00
5296;BME280;2670;42.720;23.336;2023-04-06T00:35:46;-22443.00;;;0.07;100.00
5296;BME280;2670;42.720;23.336;2023-04-06T00:38:13;-22444.66;;;0.13;100.00
5296;BME280;2670;42.720;23.336;2023-04-06T00:40:40;-22443.75;;;0.10;100.00
5296;BME280;2670;42.720;23.336;2023-04-06T00:43:07;-22441.06;;;0.01;100.00
5296;BME280;2670;42.720;23.336;2023-04-06T00:45:34;-22446.13;;;0.18;100.00
5296;BME280;2670;42.720;23.336;2023-04-06T00:48:01;-22446.28;;;0.18;100.00
5296;BME280;2670;42.720;23.336;2023-04-06T00:50:30;-22446.88;;;0.20;100.00
5296;BME280;2670;42.720;23.336;2023-04-06T00:52:56;-22444.66;;;0.13;100.00
5296;BME280;2670;42.720;23.336;2023-04-06T00:55:23;-22442.69;;;0.06;100.00
5296;BME280;2670;42.720;23.336;2023-04-06T00:57:50;-22443.44;;;0.09;100.00
5296;BME280;2670;42.720;23.336;2023-04-06T01:00:17;-22446.13;;;0.18;100.00
5296;BME280;2670;42.720;23.336;2023-04-06T01:02:44;-22443.16;;;0.08;100.00
5296;BME280;2670;42.720;23.336;2023-04-06T01:05:11;-22444.78;;;0.13;100.00
5296;BME280;2670;42.720;23.336;2023-04-06T01:07:39;-22443.91;;;0.10;100.00
5296;BME280;2670;42.720;23.336;2023-04-06T01:10:07;-22439.56;;;-0.05;100.00
5296;BME280;2670;42.720;23.336;2023-04-06T01:12:34;-22443.91;;;0.10;100.00
5296;BME280;2670;42.720;23.336;2023-04-06T01:15:01;-22445.53;;;0.16;100.00
5296;BME280;2670;42.720;23.336;2023-04-06T01:17:28;-22444.50;;;0.12;100.00
5296;BME280;2670;42.720;23.336;2023-04-06T01:19:55;-22442.53;;;0.06;100.00
5296;BME280;2670;42.720;23.336;2023-04-06T01:22:24;-22441.06;;;0.01;100.00
5296;BME280;2670;42.720;23.336;2023-04-06T01:24:50;-22445.25;;;0.15;100.00
5296;BME280;2670;42.720;23.336;2023-04-06T01:27:17;-22444.03;;;0.11;100.00
5296;BME280;2670;42.720;23.336;2023-04-06T01:29:44;-22444.78;;;0.13;100.00
5296;BME280;2670;42.720;23.336;2023-04-06T01:32:11;-22441.94;;;0.04;100.00
5296;BME280;2670;42.720;23.336;2023-04-06T01:34:37;-22443.59;;;0.09;100.00
5296;BME280;2670;42.720;23.336;2023-04-06T01:37:04;-22446.59;;;0.19;100.00
5296;BME280;2670;42.720;23.336;2023-04-06T01:39:32;-22445.09;;;0.14;100.00
5296;BME280;2670;42.720;23.336;2023-04-06T01:41:59;-22445.38;;;0.15;100.00
5296;BME280;2670;42.720;23.336;2023-04-06T01:44:26;-22443.28;;;0.08;100.00
5296;BME280;2670;42.720;23.336;2023-04-06T01:46:55;-22443.75;;;0.10;100.00
5296;BME280;2670;42.720;23.336;2023-04-06T01:49:22;-22443.44;;;0.09;100.00
5296;BME280;2670;42.720;23.336;2023-04-06T01:51:49;-22445.25;;;0.15;100.00
5296;BME280;2670;42.720;23.336;2023-04-06T01:54:15;-22447.94;;;0.24;100.00
5296;BME280;2670;42.720;23.336;2023-04-06T01:56:43;-22446.59;;;0.19;100.00
5296;BME280;2670;42.720;23.336;2023-04-06T01:59:10;-22449.59;;;0.30;100.00
5296;BME280;2670;42.720;23.336;2023-04-06T02:01:37;-22447.03;;;0.21;100.00
5296;BME280;2670;42.720;23.336;2023-04-06T02:04:04;-22447.78;;;0.23;100.00
5296;BME280;2670;42.720;23.336;2023-04-06T02:06:31;-22447.34;;;0.22;100.00
5296;BME280;2670;42.720;23.336;2023-04-06T02:08:57;-22447.78;;;0.23;100.00
5296;BME280;2670;42.720;23.336;2023-04-06T02:11:24;-22447.78;;;0.23;100.00
5296;BME280;2670;42.720;23.336;2023-04-06T02:13:52;-22450.78;;;0.34;100.00
5296;BME280;2670;42.720;23.336;2023-04-06T02:16:19;-22449.44;;;0.29;100.00
5296;BME280;2670;42.720;23.336;2023-04-06T02:18:46;-22448.69;;;0.27;100.00
5296;BME280;2670;42.720;23.336;2023-04-06T02:21:13;-22446.88;;;0.20;100.00
5296;BME280;2670;42.720;23.336;2023-04-06T02:23:42;-22448.38;;;0.26;100.00
5296;BME280;2670;42.720;23.336;2023-04-06T02:26:09;-22448.09;;;0.24;100.00
5296;BME280;2670;42.720;23.336;2023-04-06T02:28:36;-22445.53;;;0.16;100.00
5296;BME280;2670;42.720;23.336;2023-04-06T02:31:04;-22447.34;;;0.22;100.00
5296;BME280;2670;42.720;23.336;2023-04-06T02:33:31;-22449.44;;;0.29;100.00
5296;BME280;2670;42.720;23.336;2023-04-06T02:35:58;-22447.03;;;0.21;100.00
5296;BME280;2670;42.720;23.336;2023-04-06T02:38:25;-22445.69;;;0.16;100.00
5296;BME280;2670;42.720;23.336;2023-04-06T02:40:51;-22447.94;;;0.24;100.00
5296;BME280;2670;42.720;23.336;2023-04-06T02:43:18;-22450.03;;;0.31;100.00
5296;BME280;2670;42.720;23.336;2023-04-06T02:45:46;-22447.34;;;0.22;100.00
5296;BME280;2670;42.720;23.336;2023-04-06T02:48:14;-22451.22;;;0.35;100.00
5296;BME280;2670;42.720;23.336;2023-04-06T02:50:41;-22449.59;;;0.30;100.00
5296;BME280;2670;42.720;23.336;2023-04-06T02:53:07;-22445.09;;;0.14;100.00
5296;BME280;2670;42.720;23.336;2023-04-06T02:55:34;-22447.03;;;0.21;100.00
5296;BME280;2670;42.720;23.336;2023-04-06T02:58:01;-22445.25;;;0.15;100.00
5296;BME280;2670;42.720;23.336;2023-04-06T03:00:28;-22445.38;;;0.15;100.00
5296;BME280;2670;42.720;23.336;2023-04-06T03:02:54;-22447.03;;;0.21;100.00
5296;BME280;2670;42.720;23.336;2023-04-06T03:05:23;-22446.44;;;0.19;100.00
5296;BME280;2670;42.720;23.336;2023-04-06T03:07:49;-22445.38;;;0.15;100.00
5296;BME280;2670;42.720;23.336;2023-04-06T03:10:16;-22444.66;;;0.13;100.00
5296;BME280;2670;42.720;23.336;2023-04-06T03:12:43;-22444.34;;;0.12;100.00
5296;BME280;2670;42.720;23.336;2023-04-06T03:15:10;-22444.78;;;0.13;100.00
5296;BME280;2670;42.720;23.336;2023-04-06T03:17:37;-22446.59;;;0.19;100.00
5296;BME280;2670;42.720;23.336;2023-04-06T03:20:04;-22448.22;;;0.25;100.00
5296;BME280;2670;42.720;23.336;2023-04-06T03:22:32;-22443.59;;;0.09;100.00
5296;BME280;2670;42.720;23.336;2023-04-06T03:24:59;-22447.50;;;0.22;100.00
5296;BME280;2670;42.720;23.336;2023-04-06T03:27:26;-22448.84;;;0.27;100.00
5296;BME280;2670;42.720;23.336;2023-04-06T03:29:53;-22443.91;;;0.10;100.00
5296;BME280;2670;42.720;23.336;2023-04-06T03:32:19;-22444.50;;;0.12;100.00
5296;BME280;2670;42.720;23.336;2023-04-06T03:34:46;-22448.09;;;0.24;100.00
5296;BME280;2670;42.720;23.336;2023-04-06T03:37:13;-22450.94;;;0.34;100.00
5296;BME280;2670;42.720;23.336;2023-04-06T03:39:41;-22448.84;;;0.27;100.00
5296;BME280;2670;42.720;23.336;2023-04-06T03:42:08;-22444.78;;;0.13;100.00
5296;BME280;2670;42.720;23.336;2023-04-06T03:44:35;-22448.69;;;0.27;100.00
5296;BME280;2670;42.720;23.336;2023-04-06T03:47:02;-22450.78;;;0.34;100.00
5296;BME280;2670;42.720;23.336;2023-04-06T03:49:29;-22452.28;;;0.39;100.00
5296;BME280;2670;42.720;23.336;2023-04-06T03:51:56;-22447.50;;;0.22;100.00
5296;BME280;2670;42.720;23.336;2023-04-06T03:54:23;-22451.81;;;0.37;100.00
5296;BME280;2670;42.720;23.336;2023-04-06T03:56:51;-22451.09;;;0.35;100.00
5296;BME280;2670;42.720;23.336;2023-04-06T03:59:18;-22450.19;;;0.32;100.00
5296;BME280;2670;42.720;23.336;2023-04-06T04:01:44;-22447.94;;;0.24;100.00
5296;BME280;2670;42.720;23.336;2023-04-06T04:04:11;-22447.19;;;0.21;100.00
5296;BME280;2670;42.720;23.336;2023-04-06T04:06:38;-22446.28;;;0.18;100.00
5296;BME280;2670;42.720;23.336;2023-04-06T04:09:04;-22447.50;;;0.22;100.00
5296;BME280;2670;42.720;23.336;2023-04-06T04:11:31;-22446.59;;;0.19;100.00
5296;BME280;2670;42.720;23.336;2023-04-06T04:13:59;-22446.88;;;0.20;100.00
5296;BME280;2670;42.720;23.336;2023-04-06T04:16:26;-22447.78;;;0.23;100.00
5296;BME280;2670;42.720;23.336;2023-04-06T04:18:53;-22447.34;;;0.22;100.00
5296;BME280;2670;42.720;23.336;2023-04-06T04:21:19;-22449.59;;;0.30;100.00
5296;BME280;2670;42.720;23.336;2023-04-06T04:23:46;-22450.03;;;0.31;100.00
5296;BME280;2670;42.720;23.336;2023-04-06T04:26:13;-22449.44;;;0.29;100.00
5296;BME280;2670;42.720;23.336;2023-04-06T04:28:40;-22448.22;;;0.25;100.00
5296;BME280;2670;42.720;23.336;2023-04-06T04:31:08;-22452.13;;;0.38;100.00
5296;BME280;2670;42.720;23.336;2023-04-06T04:33:34;-22449.13;;;0.28;100.00
5296;BME280;2670;42.720;23.336;2023-04-06T04:36:01;-22453.63;;;0.43;100.00
5296;BME280;2670;42.720;23.336;2023-04-06T04:38:28;-22450.03;;;0.31;100.00
5296;BME280;2670;42.720;23.336;2023-04-06T04:40:55;-22453.03;;;0.41;100.00
5296;BME280;2670;42.720;23.336;2023-04-06T04:43:22;-22452.13;;;0.38;100.00
5296;BME280;2670;42.720;23.336;2023-04-06T04:45:49;-22450.03;;;0.31;100.00
5296;BME280;2670;42.720;23.336;2023-04-06T04:48:17;-22454.69;;;0.47;100.00
5296;BME280;2670;42.720;23.336;2023-04-06T04:50:43;-22451.97;;;0.38;100.00
5296;BME280;2670;42.720;23.336;2023-04-06T04:53:10;-22454.97;;;0.48;100.00
5296;BME280;2670;42.720;23.336;2023-04-06T04:55:37;-22454.97;;;0.48;100.00
5296;BME280;2670;42.720;23.336;2023-04-06T04:58:06;-22454.38;;;0.46;100.00
5296;BME280;2670;42.720;23.336;2023-04-06T05:00:34;-22454.69;;;0.47;100.00
5296;BME280;2670;42.720;23.336;2023-04-06T05:03:01;-22454.81;;;0.47;100.00
5296;BME280;2670;42.720;23.336;2023-04-06T05:05:29;-22457.66;;;0.57;100.00
5296;BME280;2670;42.720;23.336;2023-04-06T05:07:56;-22455.88;;;0.51;100.00
5296;BME280;2670;42.720;23.336;2023-04-06T05:10:23;-22457.38;;;0.56;100.00
5296;BME280;2670;42.720;23.336;2023-04-06T05:12:50;-22456.63;;;0.54;100.00
5296;BME280;2670;42.720;23.336;2023-04-06T05:15:16;-22459.00;;;0.62;100.00
5296;BME280;2670;42.720;23.336;2023-04-06T05:17:43;-22458.13;;;0.59;100.00
5296;BME280;2670;42.720;23.336;2023-04-06T05:20:11;-22458.88;;;0.61;100.00
5296;BME280;2670;42.720;23.336;2023-04-06T05:22:39;-22456.78;;;0.54;100.00
5296;BME280;2670;42.720;23.336;2023-04-06T05:25:06;-22458.88;;;0.61;100.00
5296;BME280;2670;42.720;23.336;2023-04-06T05:27:33;-22460.22;;;0.66;100.00
5296;BME280;2670;42.720;23.336;2023-04-06T05:30:01;-22461.56;;;0.70;100.00
5296;BME280;2670;42.720;23.336;2023-04-06T05:32:28;-22460.97;;;0.68;100.00
5296;BME280;2670;42.720;23.336;2023-04-06T05:34:55;-22456.31;;;0.53;100.00
5296;BME280;2670;42.720;23.336;2023-04-06T05:37:22;-22458.28;;;0.59;100.00
5296;BME280;2670;42.720;23.336;2023-04-06T05:39:50;-22456.47;;;0.53;100.00
5296;BME280;2670;42.720;23.336;2023-04-06T05:42:19;-22458.28;;;0.59;100.00
5296;BME280;2670;42.720;23.336;2023-04-06T05:44:46;-22456.63;;;0.54;100.00
5296;BME280;2670;42.720;23.336;2023-04-06T05:47:13;-22455.28;;;0.49;100.00
5296;BME280;2670;42.720;23.336;2023-04-06T05:49:41;-22456.63;;;0.54;100.00
5296;BME280;2670;42.720;23.336;2023-04-06T05:52:08;-22456.03;;;0.52;100.00
5296;BME280;2670;42.720;23.336;2023-04-06T05:54:35;-22455.13;;;0.48;100.00
5296;BME280;2670;42.720;23.336;2023-04-06T05:57:04;-22457.53;;;0.57;100.00
5296;BME280;2670;42.720;23.336;2023-04-06T05:59:30;-22456.94;;;0.55;100.00
5296;BME280;2670;42.720;23.336;2023-04-06T06:01:57;-22457.22;;;0.56;100.00
5296;BME280;2670;42.720;23.336;2023-04-06T06:04:26;-22458.72;;;0.61;100.00
5296;BME280;2670;42.720;23.336;2023-04-06T06:06:53;-22461.56;;;0.70;100.00
5296;BME280;2670;42.720;23.336;2023-04-06T06:09:19;-22460.81;;;0.68;100.00
5296;BME280;2670;42.720;23.336;2023-04-06T06:11:46;-22461.25;;;0.69;100.00
5296;BME280;2670;42.720;23.336;2023-04-06T06:14:14;-22460.22;;;0.66;100.00
5296;BME280;2670;42.720;23.336;2023-04-06T06:16:41;-22460.97;;;0.68;100.00
5296;BME280;2670;42.720;23.336;2023-04-06T06:19:08;-22461.88;;;0.71;100.00
5296;BME280;2670;42.720;23.336;2023-04-06T06:21:35;-22460.22;;;0.66;100.00
5296;BME280;2670;42.720;23.336;2023-04-06T06:24:05;-22460.66;;;0.67;100.00
5296;BME280;2670;42.720;23.336;2023-04-06T06:26:32;-22460.97;;;0.68;100.00
5296;BME280;2670;42.720;23.336;2023-04-06T06:29:00;-22461.13;;;0.69;100.00
5296;BME280;2670;42.720;23.336;2023-04-06T06:31:28;-22462.16;;;0.72;100.00
5296;BME280;2670;42.720;23.336;2023-04-06T06:33:55;-22460.50;;;0.67;100.00
5296;BME280;2670;42.720;23.336;2023-04-06T06:36:22;-22462.91;;;0.75;100.00
5296;BME280;2670;42.720;23.336;2023-04-06T06:38:49;-22463.06;;;0.76;100.00
5296;BME280;2670;42.720;23.336;2023-04-06T06:41:16;-22461.88;;;0.71;100.00
5296;BME280;2670;42.720;23.336;2023-04-06T06:43:43;-22465.00;;;0.82;100.00
5296;BME280;2670;42.720;23.336;2023-04-06T06:46:09;-22464.25;;;0.80;100.00
5296;BME280;2670;42.720;23.336;2023-04-06T06:48:38;-22466.19;;;0.86;100.00
5296;BME280;2670;42.720;23.336;2023-04-06T06:51:05;-22464.84;;;0.82;100.00
5296;BME280;2670;42.720;23.336;2023-04-06T06:53:31;-22466.06;;;0.86;100.00
5296;BME280;2670;42.720;23.336;2023-04-06T06:55:58;-22463.94;;;0.79;100.00
5296;BME280;2670;42.720;23.336;2023-04-06T06:58:25;-22467.84;;;0.92;100.00
5296;BME280;2670;42.720;23.336;2023-04-06T07:00:56;-22471.28;;;1.04;100.00
5296;BME280;2670;42.720;23.336;2023-04-06T07:03:23;-22471.59;;;1.05;100.00
5296;BME280;2670;42.720;23.336;2023-04-06T07:05:53;-22473.53;;;1.11;100.00
5296;BME280;2670;42.720;23.336;2023-04-06T07:08:19;-22472.78;;;1.09;100.00
5296;BME280;2670;42.720;23.336;2023-04-06T07:10:46;-22476.53;;;1.21;100.00
5296;BME280;2670;42.720;23.336;2023-04-06T07:13:13;-22477.13;;;1.23;100.00
5296;BME280;2670;42.720;23.336;2023-04-06T07:15:43;-22477.88;;;1.26;100.00
5296;BME280;2670;42.720;23.336;2023-04-06T07:18:10;-22479.50;;;1.32;100.00
5296;BME280;2670;42.720;23.336;2023-04-06T07:20:37;-22481.16;;;1.37;100.00
5296;BME280;2670;42.720;23.336;2023-04-06T07:23:05;-22484.31;;;1.48;99.94
5296;BME280;2670;42.720;23.336;2023-04-06T07:25:31;-22484.44;;;1.48;99.43
5296;BME280;2670;42.720;23.336;2023-04-06T07:27:58;-22488.03;;;1.61;99.24
5296;BME280;2670;42.720;23.336;2023-04-06T07:30:25;-22487.44;;;1.59;99.00
5296;BME280;2670;42.720;23.336;2023-04-06T07:32:53;-22488.34;;;1.62;98.35
5296;BME280;2670;42.720;23.336;2023-04-06T07:35:21;-22489.09;;;1.64;99.40
5296;BME280;2670;42.720;23.336;2023-04-06T07:37:48;-22491.03;;;1.71;98.27
5296;BME280;2670;42.720;23.336;2023-04-06T07:40:16;-22495.06;;;1.85;98.03
5296;BME280;2670;42.720;23.336;2023-04-06T07:42:44;-22494.78;;;1.84;96.66
5296;BME280;2670;42.720;23.336;2023-04-06T07:45:11;-22496.41;;;1.89;96.63
5296;BME280;2670;42.720;23.336;2023-04-06T07:47:38;-22497.91;;;1.94;97.04
5296;BME280;2670;42.720;23.336;2023-04-06T07:50:06;-22498.97;;;1.98;96.52
5296;BME280;2670;42.720;23.336;2023-04-06T07:52:33;-22501.94;;;2.08;97.28
5296;BME280;2670;42.720;23.336;2023-04-06T07:54:59;-22508.66;;;2.31;95.39
5296;BME280;2670;42.720;23.336;2023-04-06T07:57:28;-22503.75;;;2.14;95.16
5296;BME280;2670;42.720;23.336;2023-04-06T07:59:54;-22503.44;;;2.13;94.49
5296;BME280;2670;42.720;23.336;2023-04-06T08:02:21;-22501.94;;;2.08;94.32
5296;BME280;2670;42.720;23.336;2023-04-06T08:04:48;-22508.38;;;2.30;94.31
5296;BME280;2670;42.720;23.336;2023-04-06T08:07:15;-22514.19;;;2.50;93.09
5296;BME280;2670;42.720;23.336;2023-04-06T08:09:42;-22522.72;;;2.79;90.18
5296;BME280;2670;42.720;23.336;2023-04-06T08:12:09;-22522.56;;;2.79;90.96
5296;BME280;2670;42.720;23.336;2023-04-06T08:14:37;-22527.19;;;2.94;90.37
5296;BME280;2670;42.720;23.336;2023-04-06T08:17:04;-22525.72;;;2.89;88.43
5296;BME280;2670;42.720;23.336;2023-04-06T08:19:30;-22522.41;;;2.78;88.24
5296;BME280;2670;42.720;23.336;2023-04-06T08:21:57;-22523.63;;;2.82;89.05
5296;BME280;2670;42.720;23.336;2023-04-06T08:24:24;-22522.56;;;2.79;89.06
5296;BME280;2670;42.720;23.336;2023-04-06T08:26:50;-22527.19;;;2.94;89.12
5296;BME280;2670;42.720;23.336;2023-04-06T08:29:17;-22535.09;;;3.21;87.94
5296;BME280;2670;42.720;23.336;2023-04-06T08:31:48;-22536.91;;;3.28;86.19
5296;BME280;2670;42.720;23.336;2023-04-06T08:34:15;-22529.00;;;3.00;87.87
5296;BME280;2670;42.720;23.336;2023-04-06T08:36:42;-22533.75;;;3.17;88.03
5296;BME280;2670;42.720;23.336;2023-04-06T08:39:08;-22530.63;;;3.06;87.25
5296;BME280;2670;42.720;23.336;2023-04-06T08:41:35;-22538.41;;;3.33;87.61
5296;BME280;2670;42.720;23.336;2023-04-06T08:44:02;-22541.69;;;3.44;86.62
5296;BME280;2670;42.720;23.336;2023-04-06T08:46:30;-22541.09;;;3.42;86.95
5296;BME280;2670;42.720;23.336;2023-04-06T08:49:02;-22541.38;;;3.43;86.11
5296;BME280;2670;42.720;23.336;2023-04-06T08:51:31;-22538.69;;;3.34;85.21
5296;BME280;2670;42.720;23.336;2023-04-06T08:53:59;-22538.84;;;3.34;85.40
5296;BME280;2670;42.720;23.336;2023-04-06T08:56:27;-22536.31;;;3.25;85.15
5296;BME280;2670;42.720;23.336;2023-04-06T08:58:55;-22534.06;;;3.18;84.46
5296;BME280;2670;42.720;23.336;2023-04-06T09:01:25;-22537.66;;;3.30;85.49
5296;BME280;2670;42.720;23.336;2023-04-06T09:03:55;-22542.88;;;3.48;86.02
5296;BME280;2670;42.720;23.336;2023-04-06T09:06:24;-22548.53;;;3.67;85.31
5296;BME280;2670;42.720;23.336;2023-04-06T09:08:52;-22544.81;;;3.55;84.44
5296;BME280;2670;42.720;23.336;2023-04-06T09:11:20;-22543.91;;;3.52;85.49
5296;BME280;2670;42.720;23.336;2023-04-06T09:13:51;-22543.63;;;3.50;84.08
5296;BME280;2670;42.720;23.336;2023-04-06T09:16:18;-22550.19;;;3.73;85.28
5296;BME280;2670;42.720;23.336;2023-04-06T09:18:45;-22554.38;;;3.87;83.57
5296;BME280;2670;42.720;23.336;2023-04-06T09:21:12;-22555.25;;;3.90;83.59
5296;BME280;2670;42.720;23.336;2023-04-06T09:23:40;-22556.47;;;3.94;83.71
5296;BME280;2670;42.720;23.336;2023-04-06T09:26:09;-22556.16;;;3.93;82.57
5296;BME280;2670;42.720;23.336;2023-04-06T09:28:47;-22559.59;;;4.05;82.01
5296;BME280;2670;42.720;23.336;2023-04-06T09:31:15;-22564.50;;;4.22;81.54
5296;BME280;2670;42.720;23.336;2023-04-06T09:33:44;-22572.56;;;4.49;81.17
5296;BME280;2670;42.720;23.336;2023-04-06T09:36:11;-22570.19;;;4.41;79.03
5296;BME280;2670;42.720;23.336;2023-04-06T09:38:53;-22567.78;;;4.33;79.54
5296;BME280;2670;42.720;23.336;2023-04-06T09:41:22;-22563.31;;;4.18;79.82
5296;BME280;2670;42.720;23.336;2023-04-06T09:43:49;-22568.53;;;4.36;80.31
5296;BME280;2670;42.720;23.336;2023-04-06T09:46:17;-22568.38;;;4.35;79.91
5296;BME280;2670;42.720;23.336;2023-04-06T09:48:44;-22571.22;;;4.45;79.68
5296;BME280;2670;42.720;23.336;2023-04-06T09:51:14;-22566.31;;;4.28;80.23
5296;BME280;2670;42.720;23.336;2023-04-06T09:53:42;-22567.63;;;4.33;80.06
5296;BME280;2670;42.720;23.336;2023-04-06T09:56:16;-22567.94;;;4.34;79.96
5296;BME280;2670;42.720;23.336;2023-04-06T09:58:46;-22564.66;;;4.22;79.55
5296;BME280;2670;42.720;23.336;2023-04-06T10:01:18;-22568.38;;;4.35;79.75
5296;BME280;2670;42.720;23.336;2023-04-06T10:03:58;-22575.09;;;4.58;79.34
5296;BME280;2670;42.720;23.336;2023-04-06T10:06:27;-22577.94;;;4.68;78.44
5296;BME280;2670;42.720;23.336;2023-04-06T10:08:56;-22578.69;;;4.70;78.44
5296;BME280;2670;42.720;23.336;2023-04-06T10:11:25;-22576.13;;;4.62;77.73
5296;BME280;2670;42.720;23.336;2023-04-06T10:13:51;-22576.28;;;4.62;77.26
5296;BME280;2670;42.720;23.336;2023-04-06T10:16:18;-22577.78;;;4.67;77.99
5296;BME280;2670;42.720;23.336;2023-04-06T10:18:50;-22573.91;;;4.54;77.87
5296;BME280;2670;42.720;23.336;2023-04-06T10:21:22;-22577.47;;;4.66;78.08
5296;BME280;2670;42.720;23.336;2023-04-06T10:23:52;-22582.41;;;4.83;76.59
5296;BME280;2670;42.720;23.336;2023-04-06T10:26:21;-22579.72;;;4.74;77.26
5296;BME280;2670;42.720;23.336;2023-04-06T10:28:50;-22590.00;;;5.09;76.47
5296;BME280;2670;42.720;23.336;2023-04-06T10:31:24;-22585.97;;;4.95;76.28
5296;BME280;2670;42.720;23.336;2023-04-06T10:33:55;-22582.41;;;4.83;75.56
5296;BME280;2670;42.720;23.336;2023-04-06T10:36:23;-22589.69;;;5.08;75.76
5296;BME280;2670;42.720;23.336;2023-04-06T10:38:54;-22601.31;;;5.48;75.43
5296;BME280;2670;42.720;23.336;2023-04-06T10:41:22;-22601.91;;;5.50;74.45
5296;BME280;2670;42.720;23.336;2023-04-06T10:43:56;-22592.25;;;5.17;74.47
5296;BME280;2670;42.720;23.336;2023-04-06T10:46:25;-22591.66;;;5.15;74.76
5296;BME280;2670;42.720;23.336;2023-04-06T10:48:52;-22593.44;;;5.21;75.52
5296;BME280;2670;42.720;23.336;2023-04-06T10:51:24;-22596.56;;;5.32;74.09
5296;BME280;2670;42.720;23.336;2023-04-06T10:53:53;-22592.09;;;5.16;73.97
5296;BME280;2670;42.720;23.336;2023-04-06T10:56:22;-22595.97;;;5.30;72.69
5296;BME280;2670;42.720;23.336;2023-04-06T10:58:50;-22601.91;;;5.50;72.87
5296;BME280;2670;42.720;23.336;2023-04-06T11:01:20;-22607.59;;;5.69;73.54
5296;BME280;2670;42.720;23.336;2023-04-06T11:03:48;-22610.25;;;5.79;72.10
5296;BME280;2670;42.720;23.336;2023-04-06T11:06:19;-22611.75;;;5.84;73.04
5296;BME280;2670;42.720;23.336;2023-04-06T11:08:46;-22608.47;;;5.72;72.67
5296;BME280;2670;42.720;23.336;2023-04-06T11:11:14;-22606.69;;;5.66;72.85
5296;BME280;2670;42.720;23.336;2023-04-06T11:13:45;-22604.59;;;5.59;73.20
5296;BME280;2670;42.720;23.336;2023-04-06T11:16:15;-22608.47;;;5.72;72.76
5296;BME280;2670;42.720;23.336;2023-04-06T11:18:52;-22609.50;;;5.76;73.10
5296;BME280;2670;42.720;23.336;2023-04-06T11:21:29;-22604.91;;;5.60;73.61
5296;BME280;2670;42.720;23.336;2023-04-06T11:24:06;-22604.75;;;5.60;73.16
5296;BME280;2670;42.720;23.336;2023-04-06T11:26:37;-22602.97;;;5.54;74.49
5296;BME280;2670;42.720;23.336;2023-04-06T11:29:04;-22599.53;;;5.42;74.49
5296;BME280;2670;42.720;23.336;2023-04-06T11:31:31;-22601.31;;;5.48;73.55
5296;BME280;2670;42.720;23.336;2023-04-06T11:33:59;-22601.63;;;5.49;73.27
5296;BME280;2670;42.720;23.336;2023-04-06T11:36:27;-22596.84;;;5.33;74.01
5296;BME280;2670;42.720;23.336;2023-04-06T11:38:53;-22598.63;;;5.39;74.55
5296;BME280;2670;42.720;23.336;2023-04-06T11:41:23;-22601.63;;;5.49;73.02
5296;BME280;2670;42.720;23.336;2023-04-06T11:43:50;-22603.72;;;5.56;74.72
5296;BME280;2670;42.720;23.336;2023-04-06T11:46:18;-22608.31;;;5.72;73.83
5296;BME280;2670;42.720;23.336;2023-04-06T11:48:46;-22612.66;;;5.87;73.46
5296;BME280;2670;42.720;23.336;2023-04-06T11:51:21;-22613.69;;;5.90;71.75
5296;BME280;2670;42.720;23.336;2023-04-06T11:53:49;-22610.13;;;5.78;71.46
5296;BME280;2670;42.720;23.336;2023-04-06T11:56:23;-22609.81;;;5.77;73.19
5296;BME280;2670;42.720;23.336;2023-04-06T11:58:50;-22613.25;;;5.89;72.49
5296;BME280;2670;42.720;23.336;2023-04-06T12:01:17;-22611.00;;;5.81;71.87
5296;BME280;2670;42.720;23.336;2023-04-06T12:03:43;-22614.72;;;5.94;72.94
5296;BME280;2670;42.720;23.336;2023-04-06T12:06:11;-22617.25;;;6.03;71.75
5296;BME280;2670;42.720;23.336;2023-04-06T12:08:39;-22621.13;;;6.16;71.72
5296;BME280;2670;42.720;23.336;2023-04-06T12:11:06;-22619.50;;;6.10;71.94
5296;BME280;2670;42.720;23.336;2023-04-06T12:13:32;-22619.50;;;6.10;71.38
5296;BME280;2670;42.720;23.336;2023-04-06T12:15:59;-22622.19;;;6.19;71.02
5296;BME280;2670;42.720;23.336;2023-04-06T12:18:26;-22616.22;;;5.99;71.11
5296;BME280;2670;42.720;23.336;2023-04-06T12:20:52;-22619.06;;;6.09;72.85
5296;BME280;2670;42.720;23.336;2023-04-06T12:23:19;-22619.94;;;6.12;71.03
5296;BME280;2670;42.720;23.336;2023-04-06T12:25:47;-22621.13;;;6.16;70.47
5296;BME280;2670;42.720;23.336;2023-04-06T12:28:14;-22623.53;;;6.24;70.42
5296;BME280;2670;42.720;23.336;2023-04-06T12:30:41;-22616.22;;;5.99;71.05
5296;BME280;2670;42.720;23.336;2023-04-06T12:33:08;-22616.53;;;6.00;72.22
5296;BME280;2670;42.720;23.336;2023-04-06T12:35:34;-22616.22;;;5.99;70.99
5296;BME280;2670;42.720;23.336;2023-04-06T12:38:01;-22615.94;;;5.98;69.76
5296;BME280;2670;42.720;23.336;2023-04-06T12:40:28;-22614.59;;;5.93;70.66
5296;BME280;2670;42.720;23.336;2023-04-06T12:42:56;-22610.72;;;5.80;69.77
5296;BME280;2670;42.720;23.336;2023-04-06T12:45:23;-22611.59;;;5.83;70.95
5296;BME280;2670;42.720;23.336;2023-04-06T12:47:50;-22613.84;;;5.91;70.83
5296;BME280;2670;42.720;23.336;2023-04-06T12:50:17;-22611.31;;;5.82;70.53
5296;BME280;2670;42.720;23.336;2023-04-06T12:52:44;-22608.91;;;5.74;70.45
5296;BME280;2670;42.720;23.336;2023-04-06T12:55:11;-22609.81;;;5.77;71.05
5296;BME280;2670;42.720;23.336;2023-04-06T12:57:37;-22606.84;;;5.67;70.68
5296;BME280;2670;42.720;23.336;2023-04-06T13:00:07;-22607.28;;;5.68;70.25
5296;BME280;2670;42.720;23.336;2023-04-06T13:02:34;-22605.06;;;5.61;71.43
5296;BME280;2670;42.720;23.336;2023-04-06T13:05:01;-22603.72;;;5.56;70.97
5296;BME280;2670;42.720;23.336;2023-04-06T13:07:28;-22608.47;;;5.72;71.52